首页
METAR-TAF:

METAR-TAF

机场 :

Batajnica, 塞尔维亚

纬度: 44-56-07N, 经度: 020-15-27E, 海拔: 86米

当前天气观测

该预报发布于14分钟前的20:00 UTC
风速8节,风向东转东南,在东转东北南转南东之间变化
温度 27°C
湿度 54%
气压 1005 hPa
能见度10公里或以上
少量云层高于4000英尺, 积雨云.
雷暴, 小雨

METAR: LYBT 032000Z 11008KT 070V160 9999 -TSRA FEW040CB 27/17 Q1005 TEMPO 5000 TSRA

时间: 22:14 (20:14 UTC)

预报

该预报发布于3小时和14分钟前的17:00 UTC
预报有效从03日的 18点(UTC)到 04日的 18点(UTC)
风速10节,风向
能见度10公里或以上
1500米以下无云,无积雨云
短暂存在
从 03日的 18点(UTC)到 04日的 12点(UTC)
风速15节,风向东转东南,有时为25节阵风

TAF: LYBT 031700Z 0318/0418 10010KT CAVOK TX32/0413Z TN22/0403Z TEMPO 0318/0412 12015G25KT

超过4000个机场的气象观测和天气预报(METAR&TAF报告)。

可查询的气象台以黄色和红色小点在地图上表示。

将鼠标移到小点上方,可查看气象台名称。

然后点击查看天气观测和预报。

如需切换地图:点击带黑十字的绿色按钮放大地图;点击带横线的绿色按钮缩小地图;或者点击绿色箭头查看邻近地区的地图。


METAR-TAF: